Flight Track Log - Related Links

Times and Time Zones

All times are in EDT time to prevent confusion due to time zone crossing. See the RPA3331 flight status page for this flight to view local times or setup timezone preferences in your user account.

Time Position Orientation Groundspeed Altitude Reporting Facility
EDT Latitude Longitude Course Direction KTS MPH feet Rate Location/Type
Sun 04:13:33 PM 38.9000 -77.0667 237° Southwest 180 207 1,900  Level Potomac TRACON
Sun 04:14:27 PM 38.9333 -77.1167 311° West 252 290 4,000 2,777 Climbing Potomac TRACON
Sun 04:15:00 PM 38.6665 -77.3795 234° Southwest  Level FlightAware Approximate
Sun 04:15:34 PM 39.0000 -77.2000 316° Northwest 284 327 7,500  Level Potomac TRACON
Sun 04:16:00 PM 38.6065 -77.4971 247° West  Level FlightAware Approximate
Sun 04:16:34 PM 38.9833 -77.2833 256° West 293 337 10,700  Level Potomac TRACON
Sun 04:17:00 PM 38.5558 -77.6218 237° Southwest  Level FlightAware Approximate
Sun 04:17:34 PM 38.9167 -77.3500 218° Southwest 308 354 13,000  Level Potomac TRACON
Sun 04:18:00 PM 38.4907 -77.7354 237° Southwest  Level FlightAware Approximate
Sun 04:18:35 PM 38.8500 -77.4167 218° Southwest 322 371 15,500  Level Potomac TRACON
Sun 04:20:46 PM 38.6825 -77.5675 215° Southwest 329 379 20,100 2,095 Climbing Washington Center
Sun 04:21:44 PM 38.6061 -77.6372 216° Southwest 334 384 22,100 1,866 Climbing Washington Center
Sun 04:22:45 PM 38.5342 -77.7069 217° Southwest 340 391 23,800 1,525 Climbing Washington Center
Sun 04:23:46 PM 38.4719 -77.7956 228° Southwest 340 391 25,200 1,339 Climbing Washington Center
Sun 04:24:46 PM 38.4158 -77.9025 236° Southwest 346 398 26,500 1,373 Climbing Washington Center
Sun 04:25:44 PM 38.3617 -78.0067 236° Southwest 357 411 27,900 1,220 Climbing Washington Center
Sun 04:26:44 PM 38.3031 -78.1133 235° Southwest 364 419 28,900 992 Climbing Washington Center
Sun 04:27:45 PM 38.2467 -78.2225 237° Southwest 370 426 29,900 885 Climbing Washington Center
Sun 04:28:46 PM 38.2008 -78.3106 237° Southwest 370 426 30,700 942 Climbing Washington Center
Sun 04:29:46 PM 38.1478 -78.4381 242° Southwest 370 426 31,800 1,169 Climbing Washington Center
Sun 04:30:44 PM 38.1094 -78.5581 248° West 370 426 33,000 1,119 Climbing Washington Center
Sun 04:31:44 PM 38.0669 -78.6778 246° West 370 426 34,000 1,041 Climbing Washington Center
Sun 04:32:45 PM 37.9953 -78.7853 230° Southwest 370 426 35,100 984 Climbing Washington Center
Sun 04:33:46 PM 37.9342 -78.8828 232° Southwest 370 426 36,000 446 Climbing Washington Center
Sun 04:34:46 PM 37.8856 -78.9858 239° Southwest 359 413 36,000  Level Washington Center
Sun 04:35:44 PM 37.8403 -79.1022 244° Southwest 359 413 36,000  Level Washington Center
Sun 04:36:44 PM 37.8039 -79.2031 245° Southwest 359 413 36,000  Level Washington Center
Sun 04:37:45 PM 37.7608 -79.3167 244° Southwest 359 413 36,000  Level Washington Center
Sun 04:38:45 PM 37.7219 -79.4275 246° West 359 413 36,000  Level Washington Center
Sun 04:39:46 PM 37.6722 -79.5483 243° Southwest 354 407 36,000  Level Washington Center
Sun 04:40:46 PM 37.6333 -79.6486 244° Southwest 354 407 36,000  Level Washington Center
Sun 04:41:44 PM 37.5872 -79.7747 245° Southwest 354 407 36,000  Level Washington Center
Sun 04:42:44 PM 37.5458 -79.8797 244° Southwest 365 420 36,000  Level Washington Center
Sun 04:43:45 PM 37.5044 -79.9900 245° Southwest 371 427 36,000  Level Washington Center
Sun 04:45:24 PM 37.4261 -80.1844 243° Southwest 349 402 36,000  Level Atlanta Center
Sun 04:46:24 PM 37.3875 -80.2831 244° Southwest 349 402 36,000  Level Atlanta Center
Sun 04:47:24 PM 37.3361 -80.3822 237° Southwest 349 402 36,000  Level Atlanta Center
Sun 04:48:24 PM 37.2831 -80.4864 237° Southwest 354 407 36,000  Level Atlanta Center
Sun 04:49:24 PM 37.2236 -80.5958 236° Southwest 354 407 36,000  Level Atlanta Center
Sun 04:50:24 PM 37.1722 -80.6969 237° Southwest 354 407 36,000  Level Atlanta Center
Sun 04:51:24 PM 37.1164 -80.7983 235° Southwest 354 407 36,000  Level Atlanta Center
Sun 04:52:24 PM 37.0628 -80.9019 237° Southwest 354 407 36,000  Level Atlanta Center
Sun 04:53:24 PM 37.0131 -80.9922 235° Southwest 354 407 36,000  Level Atlanta Center
Sun 04:54:24 PM 36.9614 -81.0956 238° Southwest 354 407 36,000  Level Atlanta Center
Sun 04:55:24 PM 36.9075 -81.1936 236° Southwest 354 407 36,000  Level Atlanta Center
Sun 04:56:24 PM 36.8533 -81.2967 237° Southwest 354 407 36,000  Level Atlanta Center
Sun 04:57:24 PM 36.7953 -81.4050 236° Southwest 354 407 36,000  Level Atlanta Center
Sun 04:58:24 PM 36.7475 -81.5050 239° Southwest 344 396 36,000  Level Atlanta Center
Sun 04:59:24 PM 36.6969 -81.5922 234° Southwest 352 405 36,000  Level Atlanta Center
Sun 05:00:24 PM 36.6447 -81.6919 237° Southwest 352 405 36,000  Level Atlanta Center
Sun 05:01:24 PM 36.5883 -81.7919 235° Southwest 352 405 36,000  Level Atlanta Center
Sun 05:02:24 PM 36.5336 -81.8892 235° Southwest 352 405 36,000  Level Atlanta Center
Sun 05:03:24 PM 36.4792 -81.9886 236° Southwest 352 405 36,000  Level Atlanta Center
Sun 05:04:24 PM 36.4244 -82.0881 236° Southwest 352 405 36,000  Level Atlanta Center
Sun 05:05:24 PM 36.3656 -82.1978 236° Southwest 352 405 36,000  Level Atlanta Center
Sun 05:06:24 PM 36.3128 -82.2994 237° Southwest 352 405 36,000  Level Atlanta Center
Sun 05:07:24 PM 36.2558 -82.3961 234° Southwest 352 405 36,000  Level Atlanta Center
Sun 05:08:24 PM 36.2008 -82.4950 235° Southwest 352 405 36,000  Level Atlanta Center
Sun 05:09:24 PM 36.1458 -82.5936 235° Southwest 352 405 36,000  Level Atlanta Center
Sun 05:10:24 PM 36.0906 -82.6922 235° Southwest 357 411 36,000  Level Atlanta Center
Sun 05:11:24 PM 36.0372 -82.7908 236° Southwest 357 411 36,000  Level Atlanta Center
Sun 05:12:24 PM 35.9800 -82.8892 234° Southwest 351 404 36,000  Level Atlanta Center
Sun 05:13:24 PM 35.9286 -82.9872 237° Southwest 351 404 36,000  Level Atlanta Center
Sun 05:14:24 PM 35.8753 -83.0828 235° Southwest 351 404 36,000  Level Atlanta Center
Sun 05:15:24 PM 35.8194 -83.1808 235° Southwest 351 404 36,000  Level Atlanta Center
Sun 05:16:24 PM 35.7722 -83.2633 235° Southwest 351 404 36,000  Level Atlanta Center
Sun 05:17:24 PM 35.7206 -83.3583 236° Southwest 345 397 36,000  Level Atlanta Center
Sun 05:18:24 PM 35.6667 -83.4483 234° Southwest 340 391 36,000  Level Atlanta Center
Sun 05:19:24 PM 35.6131 -83.5406 234° Southwest 335 386 36,000  Level Atlanta Center
Sun 05:20:24 PM 35.5611 -83.6353 236° Southwest 335 386 36,000  Level Atlanta Center
Sun 05:21:24 PM 35.5072 -83.7275 234° Southwest 335 386 36,000  Level Atlanta Center
Sun 05:22:24 PM 35.4553 -83.8194 235° Southwest 335 386 36,000  Level Atlanta Center
Sun 05:23:24 PM 35.4031 -83.9114 235° Southwest 335 386 36,000  Level Atlanta Center
Sun 05:24:24 PM 35.3489 -84.0031 234° Southwest 335 386 36,000  Level Atlanta Center
Sun 05:25:24 PM 35.2969 -84.0972 236° Southwest 335 386 36,000  Level Atlanta Center
Sun 05:26:24 PM 35.2425 -84.1914 235° Southwest 340 391 36,000  Level Atlanta Center
Sun 05:27:24 PM 35.1881 -84.2803 233° Southwest 340 391 36,000  Level Atlanta Center
Sun 05:28:24 PM 35.1358 -84.3739 236° Southwest 340 391 36,000  Level Atlanta Center
Sun 05:29:24 PM 35.0811 -84.4653 234° Southwest 340 391 36,000  Level Atlanta Center
Sun 05:30:24 PM 35.0286 -84.5561 235° Southwest 335 386 36,000  Level Atlanta Center
Sun 05:31:24 PM 34.9761 -84.6497 236° Southwest 335 386 36,000  Level Atlanta Center
Sun 05:32:24 PM 34.9192 -84.7431 233° Southwest 335 386 36,000  Level Atlanta Center
Sun 05:33:24 PM 34.8603 -84.8411 234° Southwest 335 386 36,000  Level Atlanta Center
Sun 05:34:24 PM 34.8053 -84.9342 234° Southwest 340 391 36,000  Level Atlanta Center
Sun 05:35:24 PM 34.7525 -85.0247 235° Southwest 340 391 36,000  Level Atlanta Center
Sun 05:36:24 PM 34.6953 -85.1200 234° Southwest 340 391 36,000  Level Atlanta Center
Sun 05:37:24 PM 34.6422 -85.2103 234° Southwest 340 391 36,000  Level Atlanta Center
Sun 05:38:24 PM 34.5850 -85.3003 232° Southwest 340 391 36,000  Level Atlanta Center
Sun 05:39:24 PM 34.5319 -85.3953 236° Southwest 340 391 36,000  Level Atlanta Center
Sun 05:40:24 PM 34.4786 -85.4853 234° Southwest 340 391 36,000  Level Atlanta Center
Sun 05:41:24 PM 34.4214 -85.5747 232° Southwest 340 391 36,000  Level Atlanta Center
Sun 05:42:24 PM 34.3678 -85.6669 235° Southwest 335 386 36,000  Level Atlanta Center
Sun 05:43:24 PM 34.3125 -85.7589 234° Southwest 335 386 36,000  Level Atlanta Center
Sun 05:44:24 PM 34.2547 -85.8433 230° Southwest 340 391 36,000  Level Atlanta Center
Sun 05:45:24 PM 34.1992 -85.9350 234° Southwest 334 384 36,000  Level Atlanta Center
Sun 05:46:24 PM 34.1433 -86.0292 234° Southwest 341 392 36,000  Level Atlanta Center
Sun 05:47:24 PM 34.0856 -86.1181 232° Southwest 341 392 36,000  Level Atlanta Center
Sun 05:48:24 PM 34.0297 -86.2119 234° Southwest 341 392 36,000  Level Atlanta Center
Sun 05:49:24 PM 33.9717 -86.3033 233° Southwest 341 392 36,000  Level Atlanta Center
Sun 05:50:24 PM 33.9158 -86.3944 234° Southwest 341 392 36,000  Level Atlanta Center
Sun 05:51:24 PM 33.8575 -86.4878 233° Southwest 341 392 36,000  Level Atlanta Center
Sun 05:52:24 PM 33.8014 -86.5786 233° Southwest 346 398 36,000  Level Atlanta Center
Sun 05:53:24 PM 33.7453 -86.6719 234° Southwest 346 398 36,000  Level Atlanta Center
Sun 05:54:24 PM 33.6869 -86.7650 233° Southwest 351 404 36,000  Level Atlanta Center
Sun 05:55:24 PM 33.6414 -86.8383 233° Southwest 351 404 36,000  Level Atlanta Center
Sun 05:56:24 PM 33.5786 -86.9386 233° Southwest 351 404 36,000  Level Atlanta Center
Sun 05:57:24 PM 33.5200 -87.0314 233° Southwest 351 404 36,000  Level Atlanta Center
Sun 05:58:24 PM 33.4614 -87.1239 233° Southwest 351 404 36,000  Level Atlanta Center
Sun 05:59:24 PM 33.4025 -87.2164 233° Southwest 351 404 36,000  Level Atlanta Center
Sun 06:00:24 PM 33.3461 -87.3064 233° Southwest 351 404 36,000  Level Atlanta Center
Sun 06:02:38 PM 33.2094 -87.5217 233° Southwest 351 404 36,000  Level Memphis Center
Sun 06:03:38 PM 33.1489 -87.6131 232° Southwest 351 404 36,000  Level Memphis Center
Sun 06:04:38 PM 33.0903 -87.7067 233° Southwest 351 404 36,000  Level Memphis Center
Sun 06:05:38 PM 33.0297 -87.8000 232° Southwest 351 404 36,000  Level Memphis Center
Sun 06:06:38 PM 32.9689 -87.8958 233° Southwest 351 404 36,000  Level Memphis Center
Sun 06:07:38 PM 32.9122 -87.9867 233° Southwest 351 404 36,000  Level Memphis Center
Sun 06:08:38 PM 32.8536 -88.0797 233° Southwest 351 404 36,000  Level Memphis Center
Sun 06:09:38 PM 32.7819 -88.1681 226° Southwest 356 410 36,000  Level Memphis Center
Sun 06:10:38 PM 32.7147 -88.2536 227° Southwest 356 410 36,000  Level Memphis Center
Sun 06:11:38 PM 32.6450 -88.3342 224° Southwest 356 410 36,000  Level Memphis Center
Sun 06:12:38 PM 32.5775 -88.4169 226° Southwest 356 410 36,000  Level Memphis Center
Sun 06:13:38 PM 32.5117 -88.4925 224° Southwest 356 410 36,000  Level Memphis Center
Sun 06:14:38 PM 32.4442 -88.5775 227° Southwest 356 410 36,000  Level Memphis Center
Sun 06:15:38 PM 32.3722 -88.6600 224° Southwest 356 410 36,000 -450 Level Memphis Center
Sun 06:16:38 PM 32.3044 -88.7425 226° Southwest 356 410 35,100 -500 Descending Memphis Center
Sun 06:17:38 PM 32.2344 -88.8247 225° Southwest 356 410 35,000 -300 Descending Memphis Center
Sun 06:18:38 PM 32.1667 -88.9094 227° Southwest 356 410 34,500 -500 Descending Memphis Center
Sun 06:19:38 PM 32.0964 -88.9889 224° Southwest 356 410 34,000 -250 Descending Memphis Center
Sun 06:20:38 PM 32.0325 -89.0658 226° Southwest 351 404 34,000 -350 Level Memphis Center
Sun 06:21:38 PM 31.9667 -89.1453 226° Southwest 351 404 33,300 -1,250 Descending Memphis Center
Sun 06:22:38 PM 31.8964 -89.2244 224° Southwest 351 404 31,500 -1,922 Descending Memphis Center
Sun 06:23:21 PM 31.8436 -89.2850 224° Southwest 349 402 30,000 -1,886 Descending Houston Center
Sun 06:24:23 PM 31.7742 -89.3672 225° Southwest 354 407 28,200 -968 Descending Houston Center
Sun 06:25:25 PM 31.7067 -89.4450 224° Southwest 342 394 28,000 -194 Descending Houston Center
Sun 06:26:27 PM 31.6403 -89.5178 223° Southwest 330 380 27,800 -1,113 Descending Houston Center
Sun 06:27:29 PM 31.5467 -89.5783 209° Southwest 339 390 25,700 -1,902 Descending Houston Center
Sun 06:28:30 PM 31.4619 -89.6308 208° Southwest 343 395 23,900 -1,756 Descending Houston Center
Sun 06:29:32 PM 31.3786 -89.6831 208° Southwest 340 391 22,100 -1,742 Descending Houston Center
Sun 06:30:34 PM 31.2950 -89.7356 208° Southwest 342 394 20,300 -1,694 Descending Houston Center
Sun 06:31:36 PM 31.2142 -89.7864 208° Southwest 334 384 18,600 -1,756 Descending Houston Center
Sun 06:32:37 PM 31.1206 -89.8444 208° Southwest 319 367 16,700 -1,707 Descending Houston Center
Sun 06:33:39 PM 31.0456 -89.8908 208° Southwest 307 353 15,100 -1,597 Descending Houston Center
Sun 06:34:41 PM 30.9708 -89.9372 208° Southwest 305 351 13,400 -1,526 Descending Houston Center
Sun 06:35:33 PM 30.9078 -89.9764 208° Southwest 292 336 12,200 -1,220 Descending Houston Center
Sun 06:36:44 PM 30.8328 -90.0233 208° Southwest 282 325 10,900 -857 Descending Houston Center
Sun 06:37:46 PM 30.7581 -90.0700 208° Southwest 267 307 10,300 -1,065 Descending Houston Center
Sun 06:38:48 PM 30.7036 -90.1072 210° Southwest 267 307 8,700 -1,610 Descending Houston Center
Sun 06:39:49 PM 30.6247 -90.1497 205° Southwest 261 300 7,000 -1,512 Descending Houston Center
Sun 06:40:51 PM 30.5578 -90.1767 199° South 256 295 5,600 -1,355 Descending Houston Center
Sun 06:41:53 PM 30.4944 -90.2044 201° Southwest 250 288 4,200 -823 Descending Houston Center
Sun 06:42:55 PM 30.4314 -90.2314 200° South 245 282 3,900 -146 Descending Houston Center
Sun 06:43:56 PM 30.3692 -90.2575 200° South 242 278 3,900  Level Houston Center
Sun 06:44:58 PM 30.2950 -90.2883 200° South 240 276 3,900 99 Level Houston Center
Sun 06:45:57 PM 30.2369 -90.3131 200° South 224 258 4,100 -585 Climbing Houston Center
Sun 06:47:01 PM 30.1800 -90.3361 199° South 224 258 2,700 -1,048 Descending Houston Center
Sun 06:48:03 PM 30.1214 -90.3531 194° South 220 253 1,900 -458 Descending Houston Center
Sun 06:48:59 PM 30.0608 -90.3658 190° South 211 243 1,800 -410 Descending Houston Center
Sun 06:50:00 PM 30.0144 -90.3461 160° South 165 190 1,100 -645 Descending Houston Center
Sun 06:51:00 PM 30.0006 -90.3033 111° Southeast 135 155 500 -600 Descending Houston Center
Sun 06:53:00 PM 29.9934 -90.2580 128° Southeast  Level Estimated

Login

Don't have an account? Register now (free) for customized features, flight alerts, and more!